Startpagina
METAR-TAF:

METAR-TAF

Vliegvelden :

Flughafen St. Gallen-Altenrhein

Sankt Gallen, Zwitserland

breedte: 47-29-06N, lengte: 009-33-43E, hoogte: 398 m

Actueel weer

Dit bericht is 19 minuten geleden gemaakt, om 14:20 UTC
Wind 5 kt uit het noordnoordoosten
Temperatuur 27°C
Vochtigheid 48%
Druk 1016 hPa
Zicht 10 km of meer
geen wolken onder 1500 m en geen cumulonimbus

METAR: LSZR 091420Z 02005KT CAVOK 27/15 Q1016 NOSIG RMK L

Tijdstip: 16:39 (14:39 UTC)

Verwachting

Dit bericht is 14 minuten geleden gemaakt, om 14:25 UTC
Verwachting geldig van 09 om 15 UTC tot 09 om 24 UTC
Wind 5 kt uit het noordnoordoosten
Zicht 10 km of meer
geen wolken onder 1500 m en geen cumulonimbus

TAF: LSZR 091425Z 0915/0924 02005KT CAVOK

Waarnemingen en weersverwachtingen van meer dan 4000 vliegvelden (METAR en TAF).

De beschikbare stations zijn de gele en rode punten op de kaart.

Ga met uw muis naar het station om de naam te zien.

Klik dan om waarnemingen en weersverwachtingen te zien.

kaart wijzigen: klik op de groene knoppen met een zwart kruis om in te zoomen, op de groene knop met een streepje om uit te zoomen of op de groene pijlen voor aangrenzende kaarten.


METAR-TAF: